createdAt,value
2023-03-26T00:00:45.054Z,8.33
2023-03-26T00:01:45.068Z,8.33
2023-03-26T00:02:45.114Z,8.33
2023-03-26T00:03:45.153Z,8.33
2023-03-26T00:04:45.033Z,8.33
2023-03-26T00:05:45.910Z,8.35
2023-03-26T00:06:44.982Z,8.35
2023-03-26T00:07:44.965Z,8.36
2023-03-26T00:08:45.050Z,8.40
2023-03-26T00:09:44.942Z,8.39
2023-03-26T00:10:44.918Z,8.39
2023-03-26T00:11:44.923Z,8.40
2023-03-26T00:12:44.922Z,8.39
2023-03-26T00:13:44.887Z,8.39
2023-03-26T00:14:44.884Z,8.36
2023-03-26T00:15:44.888Z,8.36
2023-03-26T00:16:44.862Z,8.35
2023-03-26T00:17:44.848Z,8.35
2023-03-26T00:18:44.820Z,8.35
2023-03-26T00:19:44.835Z,8.35
2023-03-26T00:20:44.831Z,8.36
2023-03-26T00:21:44.776Z,8.36
2023-03-26T00:22:44.785Z,8.36
2023-03-26T00:23:44.738Z,8.39
2023-03-26T00:24:44.752Z,8.37
2023-03-26T00:25:44.724Z,8.37
2023-03-26T00:26:44.814Z,8.37
2023-03-26T00:27:44.711Z,8.39
2023-03-26T00:28:44.705Z,8.40
2023-03-26T00:29:44.677Z,8.40
2023-03-26T00:30:44.666Z,8.44
2023-03-26T00:31:44.698Z,8.45
2023-03-26T00:32:44.689Z,8.47
2023-03-26T00:33:45.613Z,8.44
2023-03-26T00:34:44.603Z,8.42
2023-03-26T00:35:44.601Z,8.42
2023-03-26T00:36:44.591Z,8.40
2023-03-26T00:37:44.570Z,8.39
2023-03-26T00:38:44.568Z,8.40
2023-03-26T00:39:44.549Z,8.39
2023-03-26T00:40:44.539Z,8.42
2023-03-26T00:41:44.505Z,8.40
2023-03-26T00:42:44.678Z,8.42
2023-03-26T00:43:44.518Z,8.45
2023-03-26T00:44:44.475Z,8.45
2023-03-26T00:45:44.450Z,8.47
2023-03-26T00:46:44.535Z,8.48
2023-03-26T00:47:44.517Z,8.48
2023-03-26T00:48:45.931Z,8.48
2023-03-26T00:49:44.406Z,8.48
2023-03-26T00:50:44.415Z,8.48
2023-03-26T00:51:44.384Z,8.48
2023-03-26T00:52:44.374Z,8.48
2023-03-26T00:53:44.403Z,8.48
2023-03-26T00:54:44.362Z,8.50
2023-03-26T00:55:44.327Z,8.50
2023-03-26T00:56:44.358Z,8.50
2023-03-26T00:57:44.312Z,8.51
2023-03-26T00:58:44.324Z,8.54
2023-03-26T00:59:44.295Z,8.55
2023-03-26T01:00:46.396Z,8.57
2023-03-26T01:01:44.334Z,8.57
2023-03-26T01:02:44.290Z,8.57
2023-03-26T01:03:53.016Z,8.57
2023-03-26T01:04:45.279Z,8.58
2023-03-26T01:05:44.219Z,8.57
2023-03-26T01:06:44.195Z,8.57
2023-03-26T01:07:44.195Z,8.57
2023-03-26T01:08:44.171Z,8.54
2023-03-26T01:09:44.166Z,8.55
2023-03-26T01:10:44.143Z,8.55
2023-03-26T01:11:44.147Z,8.57
2023-03-26T01:12:44.125Z,8.57
2023-03-26T01:13:44.109Z,8.55
2023-03-26T01:14:44.104Z,8.55
2023-03-26T01:15:44.113Z,8.60
2023-03-26T01:16:44.052Z,8.58
2023-03-26T01:17:44.104Z,8.57
2023-03-26T01:18:44.030Z,8.57
2023-03-26T01:19:44.044Z,8.58
2023-03-26T01:20:44.014Z,8.60
2023-03-26T01:21:44.052Z,8.60
2023-03-26T01:22:43.993Z,8.60
2023-03-26T01:23:43.966Z,8.60
2023-03-26T01:24:44.013Z,8.58
2023-03-26T01:25:43.953Z,8.58
2023-03-26T01:26:43.927Z,8.57
2023-03-26T01:27:43.926Z,8.60
2023-03-26T01:28:43.900Z,8.57
2023-03-26T01:29:43.925Z,8.55
2023-03-26T01:30:43.892Z,8.54
2023-03-26T01:31:43.866Z,8.54
2023-03-26T01:32:44.141Z,8.54
2023-03-26T01:33:44.054Z,8.53
2023-03-26T01:34:43.835Z,8.54
2023-03-26T01:35:43.859Z,8.54
2023-03-26T01:36:43.853Z,8.53
2023-03-26T01:37:43.787Z,8.53
2023-03-26T01:38:43.837Z,8.53
2023-03-26T01:39:43.781Z,8.50
2023-03-26T01:40:43.756Z,8.45
2023-03-26T01:41:43.743Z,8.44
2023-03-26T01:42:43.748Z,8.42
2023-03-26T01:43:43.734Z,8.42
2023-03-26T01:44:43.702Z,8.40
2023-03-26T01:45:43.697Z,8.35
2023-03-26T01:46:43.738Z,8.33
2023-03-26T01:47:43.782Z,8.29
2023-03-26T01:48:43.696Z,8.26
2023-03-26T01:49:43.642Z,8.22
2023-03-26T01:50:43.628Z,8.21
2023-03-26T01:51:43.620Z,8.20
2023-03-26T01:52:43.592Z,8.18
2023-03-26T01:53:43.596Z,8.20
2023-03-26T01:54:50.650Z,8.20
2023-03-26T01:55:43.572Z,8.20
2023-03-26T01:56:43.573Z,8.21
2023-03-26T01:57:43.564Z,8.21
2023-03-26T01:58:43.567Z,8.18
2023-03-26T01:59:43.509Z,8.18
2023-03-26T02:00:43.481Z,8.15
2023-03-26T02:01:43.656Z,8.12
2023-03-26T02:02:43.652Z,8.17
2023-03-26T02:03:43.493Z,8.15
2023-03-26T02:04:43.478Z,8.14
2023-03-26T02:05:43.434Z,8.11
2023-03-26T02:06:43.422Z,8.10
2023-03-26T02:07:43.404Z,8.07
2023-03-26T02:08:43.420Z,8.03
2023-03-26T02:09:43.411Z,8.04
2023-03-26T02:10:43.390Z,8.08
2023-03-26T02:11:43.393Z,8.08
2023-03-26T02:12:43.370Z,8.04
2023-03-26T02:13:43.356Z,8.03
2023-03-26T02:14:43.346Z,8.07
2023-03-26T02:15:43.351Z,8.10
2023-03-26T02:16:43.365Z,8.10
2023-03-26T02:17:43.345Z,8.10
2023-03-26T02:18:43.267Z,8.08
2023-03-26T02:19:43.250Z,8.07
2023-03-26T02:20:43.264Z,8.04
2023-03-26T02:21:43.283Z,8.08
2023-03-26T02:22:43.255Z,8.04
2023-03-26T02:23:43.199Z,8.03
2023-03-26T02:24:43.204Z,8.03
2023-03-26T02:25:43.196Z,8.04
2023-03-26T02:26:43.151Z,8.03
2023-03-26T02:27:43.171Z,8.02
2023-03-26T02:28:43.181Z,7.99
2023-03-26T02:29:43.144Z,7.96
2023-03-26T02:30:43.108Z,7.94
2023-03-26T02:31:43.132Z,7.92
2023-03-26T02:32:43.184Z,7.92
2023-03-26T02:33:43.203Z,7.89
2023-03-26T02:34:43.050Z,7.87
2023-03-26T02:35:43.117Z,7.87
2023-03-26T02:36:43.120Z,7.87
2023-03-26T02:37:43.025Z,7.85
2023-03-26T02:38:43.002Z,7.87
2023-03-26T02:39:43.039Z,7.89
2023-03-26T02:40:43.021Z,7.90
2023-03-26T02:41:42.977Z,7.90
2023-03-26T02:42:42.985Z,7.90
2023-03-26T02:43:42.954Z,7.90
2023-03-26T02:44:42.926Z,7.90
2023-03-26T02:45:42.973Z,7.89
2023-03-26T02:46:42.905Z,7.84
2023-03-26T02:47:42.912Z,7.82
2023-03-26T02:48:42.882Z,7.81
2023-03-26T02:49:42.852Z,7.79
2023-03-26T02:50:42.846Z,7.78
2023-03-26T02:51:42.858Z,7.75
2023-03-26T02:52:42.847Z,7.75
2023-03-26T02:53:42.801Z,7.75
2023-03-26T02:54:42.794Z,7.74
2023-03-26T02:55:42.834Z,7.75
2023-03-26T02:56:42.816Z,7.75
2023-03-26T02:57:42.760Z,7.77
2023-03-26T02:58:42.798Z,7.78
2023-03-26T02:59:42.744Z,7.79
2023-03-26T03:00:42.731Z,7.79
2023-03-26T03:01:42.738Z,7.78
2023-03-26T03:02:42.840Z,7.79
2023-03-26T03:03:42.685Z,7.81
2023-03-26T03:04:42.664Z,7.87
2023-03-26T03:05:42.695Z,7.87
2023-03-26T03:06:42.622Z,7.90
2023-03-26T03:07:42.664Z,7.90
2023-03-26T03:08:42.624Z,7.90
2023-03-26T03:09:42.650Z,7.92
2023-03-26T03:10:42.570Z,7.92
2023-03-26T03:11:42.577Z,7.93
2023-03-26T03:12:42.579Z,7.93
2023-03-26T03:13:42.600Z,7.92
2023-03-26T03:14:42.556Z,7.92
2023-03-26T03:15:42.537Z,7.93
2023-03-26T03:16:42.551Z,7.93
2023-03-26T03:17:42.561Z,7.94
2023-03-26T03:18:42.500Z,7.94
2023-03-26T03:19:42.482Z,7.94
2023-03-26T03:20:42.476Z,7.94
2023-03-26T03:21:42.483Z,7.94
2023-03-26T03:22:42.410Z,7.96
2023-03-26T03:23:42.430Z,7.96
2023-03-26T03:24:42.408Z,7.97
2023-03-26T03:25:42.392Z,7.97
2023-03-26T03:26:42.522Z,7.99
2023-03-26T03:27:42.378Z,7.99
2023-03-26T03:28:42.346Z,7.97
2023-03-26T03:29:42.327Z,7.97
2023-03-26T03:30:42.368Z,7.97
2023-03-26T03:31:42.321Z,7.99
2023-03-26T03:32:42.308Z,7.99
2023-03-26T03:33:42.291Z,8.00
2023-03-26T03:34:42.283Z,8.02
2023-03-26T03:35:42.312Z,8.02
2023-03-26T03:36:42.240Z,8.04
2023-03-26T03:37:42.256Z,8.02
2023-03-26T03:38:42.226Z,8.03
2023-03-26T03:39:42.216Z,8.04
2023-03-26T03:40:42.188Z,8.08
2023-03-26T03:41:42.187Z,8.10
2023-03-26T03:42:42.182Z,8.10
2023-03-26T03:43:42.226Z,8.11
2023-03-26T03:44:42.162Z,8.10
2023-03-26T03:45:42.187Z,8.11
2023-03-26T03:46:42.216Z,8.10
2023-03-26T03:47:42.198Z,8.08
2023-03-26T03:48:42.135Z,8.07
2023-03-26T03:49:42.163Z,8.08
2023-03-26T03:50:42.189Z,8.10
2023-03-26T03:51:42.063Z,8.10
2023-03-26T03:52:42.080Z,8.12
2023-03-26T03:53:42.091Z,8.14
2023-03-26T03:54:42.056Z,8.15
2023-03-26T03:55:42.024Z,8.12
2023-03-26T03:56:42.061Z,8.12
2023-03-26T03:57:41.998Z,8.12
2023-03-26T03:58:41.993Z,8.12
2023-03-26T03:59:47.472Z,8.12
2023-03-26T04:00:42.929Z,8.14
2023-03-26T04:01:41.936Z,8.14
2023-03-26T04:02:42.057Z,8.15
2023-03-26T04:03:42.011Z,8.17
2023-03-26T04:04:42.011Z,8.18
2023-03-26T04:05:41.885Z,8.17
2023-03-26T04:06:41.857Z,8.18
2023-03-26T04:07:41.855Z,8.18
2023-03-26T04:08:41.856Z,8.20
2023-03-26T04:09:41.860Z,8.20
2023-03-26T04:10:41.830Z,8.18
2023-03-26T04:11:41.868Z,8.20
2023-03-26T04:12:41.796Z,8.21
2023-03-26T04:13:41.774Z,8.21
2023-03-26T04:14:41.768Z,8.21
2023-03-26T04:15:41.768Z,8.20
2023-03-26T04:16:41.723Z,8.21
2023-03-26T04:17:41.776Z,8.21
2023-03-26T04:18:41.690Z,8.20
2023-03-26T04:19:41.706Z,8.18
2023-03-26T04:20:41.694Z,8.18
2023-03-26T04:21:41.707Z,8.17
2023-03-26T04:22:41.646Z,8.14
2023-03-26T04:23:41.650Z,8.15
2023-03-26T04:24:41.664Z,8.15
2023-03-26T04:25:41.664Z,8.15
2023-03-26T04:26:41.599Z,8.17
2023-03-26T04:27:41.766Z,8.17
2023-03-26T04:28:41.565Z,8.15
2023-03-26T04:29:41.575Z,8.14
2023-03-26T04:30:41.562Z,8.12
2023-03-26T04:31:41.576Z,8.11
2023-03-26T04:32:41.549Z,8.14
2023-03-26T04:33:41.529Z,8.12
2023-03-26T04:34:41.505Z,8.11
2023-03-26T04:35:41.528Z,8.11
2023-03-26T04:36:41.505Z,8.10
2023-03-26T04:37:41.469Z,8.08
2023-03-26T04:38:41.447Z,8.04
2023-03-26T04:39:41.471Z,8.03
2023-03-26T04:40:41.449Z,8.03
2023-03-26T04:41:41.401Z,8.03
2023-03-26T04:42:41.376Z,8.03
2023-03-26T04:43:41.409Z,8.03
2023-03-26T04:44:41.364Z,8.03
2023-03-26T04:45:41.379Z,8.02
2023-03-26T04:46:41.422Z,8.03
2023-03-26T04:47:41.388Z,8.07
2023-03-26T04:48:41.365Z,8.04
2023-03-26T04:49:41.359Z,8.07
2023-03-26T04:50:41.289Z,8.07
2023-03-26T04:51:41.307Z,8.08
2023-03-26T04:52:42.624Z,8.08
2023-03-26T04:53:41.257Z,8.10
2023-03-26T04:54:41.247Z,8.10
2023-03-26T04:55:41.232Z,8.08
2023-03-26T04:56:41.249Z,8.10
2023-03-26T04:57:41.218Z,8.08
2023-03-26T04:58:41.177Z,8.07
2023-03-26T04:59:41.202Z,8.07
2023-03-26T05:00:41.215Z,8.04
2023-03-26T05:01:41.172Z,8.08
2023-03-26T05:02:41.177Z,8.07
2023-03-26T05:03:41.196Z,8.10
2023-03-26T05:04:41.152Z,8.07
2023-03-26T05:05:41.183Z,8.07
2023-03-26T05:06:41.082Z,8.04
2023-03-26T05:07:41.281Z,8.03
2023-03-26T05:08:41.211Z,8.03
2023-03-26T05:09:41.188Z,8.03
2023-03-26T05:10:41.011Z,8.07
2023-03-26T05:11:41.018Z,8.03
2023-03-26T05:12:41.005Z,8.02
2023-03-26T05:13:40.978Z,8.00
2023-03-26T05:14:40.977Z,8.00
2023-03-26T05:15:40.979Z,8.00
2023-03-26T05:16:40.983Z,8.02
2023-03-26T05:17:40.999Z,8.02
2023-03-26T05:18:40.927Z,8.02
2023-03-26T05:19:40.923Z,8.02
2023-03-26T05:20:40.880Z,8.02
2023-03-26T05:21:40.923Z,8.03
2023-03-26T05:22:40.881Z,8.02
2023-03-26T05:23:40.841Z,8.02
2023-03-26T05:24:40.861Z,8.03
2023-03-26T05:25:40.854Z,8.03
2023-03-26T05:26:40.833Z,8.03
2023-03-26T05:27:40.803Z,8.04
2023-03-26T05:28:40.775Z,8.04
2023-03-26T05:29:40.793Z,8.08
2023-03-26T05:30:40.770Z,8.04
2023-03-26T05:31:40.796Z,8.08
2023-03-26T05:32:40.862Z,8.07
2023-03-26T05:33:40.813Z,8.07
2023-03-26T05:34:40.753Z,8.08
2023-03-26T05:35:40.728Z,8.08
2023-03-26T05:36:40.689Z,8.10
2023-03-26T05:37:40.676Z,8.14
2023-03-26T05:38:40.694Z,8.12
2023-03-26T05:39:40.671Z,8.14
2023-03-26T05:40:40.657Z,8.14
2023-03-26T05:41:40.630Z,8.12
2023-03-26T05:42:40.634Z,8.11
2023-03-26T05:43:40.607Z,8.12
2023-03-26T05:44:40.597Z,8.14
2023-03-26T05:45:40.596Z,8.14
2023-03-26T05:46:40.577Z,8.14
2023-03-26T05:47:40.744Z,8.14
2023-03-26T05:48:40.565Z,8.12
2023-03-26T05:49:40.501Z,8.10
2023-03-26T05:50:40.492Z,8.10
2023-03-26T05:51:40.483Z,8.11
2023-03-26T05:52:40.499Z,8.11
2023-03-26T05:53:40.492Z,8.12
2023-03-26T05:54:40.481Z,8.12
2023-03-26T05:55:40.445Z,8.12
2023-03-26T05:56:40.478Z,8.15
2023-03-26T05:57:40.432Z,8.15
2023-03-26T05:58:40.423Z,8.15
2023-03-26T05:59:40.395Z,8.14
2023-03-26T06:00:40.399Z,8.15
2023-03-26T06:01:40.405Z,8.15
2023-03-26T06:02:40.419Z,8.14
2023-03-26T06:03:40.404Z,8.15
2023-03-26T06:04:40.408Z,8.15
2023-03-26T06:05:40.307Z,8.17
2023-03-26T06:06:40.343Z,8.15
2023-03-26T06:07:40.295Z,8.17
2023-03-26T06:08:40.293Z,8.18
2023-03-26T06:09:40.253Z,8.18
2023-03-26T06:10:40.242Z,8.22
2023-03-26T06:11:40.244Z,8.25
2023-03-26T06:12:40.233Z,8.26
2023-03-26T06:13:40.214Z,8.26
2023-03-26T06:14:40.280Z,8.28
2023-03-26T06:15:40.254Z,8.26
2023-03-26T06:16:40.169Z,8.29
2023-03-26T06:17:40.172Z,8.32
2023-03-26T06:18:40.165Z,8.30
2023-03-26T06:19:40.166Z,8.29
2023-03-26T06:20:40.144Z,8.25
2023-03-26T06:21:40.113Z,8.28
2023-03-26T06:22:40.094Z,8.28
2023-03-26T06:23:42.836Z,8.26
2023-03-26T06:24:40.138Z,8.22
2023-03-26T06:25:40.068Z,8.20
2023-03-26T06:26:40.049Z,8.12
2023-03-26T06:27:40.026Z,8.12
2023-03-26T06:28:40.034Z,8.04
2023-03-26T06:29:40.031Z,7.97
2023-03-26T06:30:40.016Z,7.90
2023-03-26T06:31:40.031Z,7.75
2023-03-26T06:32:40.012Z,7.58
2023-03-26T06:33:39.971Z,7.29
2023-03-26T06:34:39.945Z,7.09
2023-03-26T06:35:39.942Z,6.91
2023-03-26T06:36:39.940Z,6.80
2023-03-26T06:37:39.879Z,6.76
2023-03-26T06:38:39.882Z,6.71
2023-03-26T06:39:39.911Z,6.71
2023-03-26T06:40:39.851Z,6.66
2023-03-26T06:41:39.850Z,6.66
2023-03-26T06:43:08.268Z,6.65
2023-03-26T06:43:40.801Z,6.65
2023-03-26T06:44:39.801Z,6.65
2023-03-26T06:45:39.810Z,6.66
2023-03-26T06:46:39.798Z,6.66
2023-03-26T06:47:39.832Z,6.66
2023-03-26T06:48:39.780Z,6.66
2023-03-26T06:49:39.739Z,6.68
2023-03-26T06:50:39.716Z,6.69
2023-03-26T06:51:39.719Z,6.72
2023-03-26T06:52:39.710Z,6.77
2023-03-26T06:53:39.715Z,6.77
2023-03-26T06:54:39.704Z,6.77
2023-03-26T06:55:39.657Z,6.84
2023-03-26T06:56:39.774Z,6.86
2023-03-26T06:57:39.637Z,6.86
2023-03-26T06:58:39.640Z,6.89
2023-03-26T06:59:39.613Z,6.94
2023-03-26T07:00:39.656Z,6.98
2023-03-26T07:01:39.639Z,6.98
2023-03-26T07:02:39.680Z,7.01
2023-03-26T07:03:39.585Z,7.04
2023-03-26T07:04:39.554Z,7.05
2023-03-26T07:05:39.540Z,7.09
2023-03-26T07:06:39.574Z,7.15
2023-03-26T07:07:46.122Z,7.15
2023-03-26T07:08:40.532Z,7.16
2023-03-26T07:09:39.502Z,7.22
2023-03-26T07:10:39.469Z,7.20
2023-03-26T07:11:39.496Z,7.17
2023-03-26T07:12:39.480Z,7.19
2023-03-26T07:13:39.424Z,7.24
2023-03-26T07:14:39.426Z,7.24
2023-03-26T07:15:39.400Z,7.26
2023-03-26T07:16:39.401Z,7.29
2023-03-26T07:17:39.596Z,7.27
2023-03-26T07:18:39.525Z,7.29
2023-03-26T07:19:39.353Z,7.27
2023-03-26T07:20:39.334Z,7.29
2023-03-26T07:21:39.334Z,7.31
2023-03-26T07:22:39.323Z,7.34
2023-03-26T07:23:39.326Z,7.29
2023-03-26T07:24:39.309Z,7.35
2023-03-26T07:25:39.310Z,7.44
2023-03-26T07:26:39.251Z,7.60
2023-03-26T07:27:39.273Z,7.74
2023-03-26T07:28:39.261Z,7.84
2023-03-26T07:29:39.251Z,7.93
2023-03-26T07:30:39.210Z,8.02
2023-03-26T07:31:39.274Z,8.03
2023-03-26T07:32:39.204Z,8.10
2023-03-26T07:33:39.183Z,8.12
2023-03-26T07:34:39.192Z,8.14
2023-03-26T07:35:39.238Z,8.21
2023-03-26T07:36:39.160Z,8.22
2023-03-26T07:37:39.135Z,8.25
2023-03-26T07:38:39.101Z,8.25
2023-03-26T07:39:39.094Z,8.22
2023-03-26T07:40:39.091Z,8.21
2023-03-26T07:41:39.069Z,8.26
2023-03-26T07:42:39.047Z,8.21
2023-03-26T07:43:39.052Z,8.28
2023-03-26T07:44:39.033Z,8.33
2023-03-26T07:45:39.088Z,8.40
2023-03-26T07:46:39.059Z,8.47
2023-03-26T07:47:38.994Z,8.53
2023-03-26T07:48:38.985Z,8.53
2023-03-26T07:49:38.964Z,8.53
2023-03-26T07:50:38.963Z,8.60
2023-03-26T07:51:38.949Z,8.63
2023-03-26T07:52:38.925Z,8.58
2023-03-26T07:53:38.975Z,8.60
2023-03-26T07:54:45.952Z,8.62
2023-03-26T07:55:38.882Z,8.62
2023-03-26T07:56:38.912Z,8.63
2023-03-26T07:57:38.872Z,8.65
2023-03-26T07:58:38.835Z,8.71
2023-03-26T07:59:38.827Z,8.73
2023-03-26T08:00:38.811Z,8.71
2023-03-26T08:01:38.818Z,8.68
2023-03-26T08:02:38.817Z,8.69
2023-03-26T08:03:38.829Z,8.68
2023-03-26T08:04:38.918Z,8.69
2023-03-26T08:05:38.795Z,8.72
2023-03-26T08:06:38.730Z,8.69
2023-03-26T08:07:38.729Z,8.69
2023-03-26T08:08:38.721Z,8.66
2023-03-26T08:09:38.716Z,8.69
2023-03-26T08:10:38.683Z,8.69
2023-03-26T08:11:38.664Z,8.66
2023-03-26T08:12:38.652Z,8.65
2023-03-26T08:13:38.649Z,8.62
2023-03-26T08:14:38.619Z,8.60
2023-03-26T08:15:38.681Z,8.65
2023-03-26T08:16:38.610Z,8.63
2023-03-26T08:17:38.641Z,8.69
2023-03-26T08:18:38.581Z,8.69
2023-03-26T08:19:38.597Z,8.65
2023-03-26T08:20:38.550Z,8.69
2023-03-26T08:21:38.536Z,8.66
2023-03-26T08:22:38.528Z,8.66
2023-03-26T08:23:50.574Z,8.72
2023-03-26T08:24:39.486Z,8.73
2023-03-26T08:25:38.564Z,8.78
2023-03-26T08:26:38.485Z,8.75
2023-03-26T08:27:38.470Z,8.81
2023-03-26T08:28:38.459Z,8.83
2023-03-26T08:29:38.429Z,8.81
2023-03-26T08:30:38.426Z,8.78
2023-03-26T08:31:38.447Z,8.75
2023-03-26T08:32:38.447Z,8.75
2023-03-26T08:33:38.600Z,8.75
2023-03-26T08:34:38.378Z,8.81
2023-03-26T08:35:38.381Z,8.78
2023-03-26T08:36:38.339Z,8.79
2023-03-26T08:37:38.312Z,8.90
2023-03-26T08:38:38.322Z,8.88
2023-03-26T08:39:38.316Z,8.90
2023-03-26T08:40:38.273Z,8.83
2023-03-26T08:41:38.268Z,8.86
2023-03-26T08:42:38.280Z,8.84
2023-03-26T08:43:38.229Z,8.84
2023-03-26T08:44:38.224Z,8.83
2023-03-26T08:45:38.228Z,8.84
2023-03-26T08:46:38.263Z,8.86
2023-03-26T08:47:38.215Z,8.90
2023-03-26T08:48:38.222Z,8.93
2023-03-26T08:49:38.156Z,8.88
2023-03-26T08:50:38.180Z,8.93
2023-03-26T08:51:38.131Z,8.99
2023-03-26T08:52:38.143Z,9.06
2023-03-26T08:53:38.118Z,9.06
2023-03-26T08:54:38.087Z,9.13
2023-03-26T08:55:38.122Z,9.27
2023-03-26T08:56:38.292Z,9.24
2023-03-26T08:57:38.053Z,9.25
2023-03-26T08:58:38.060Z,9.28
2023-03-26T08:59:38.031Z,9.28
2023-03-26T09:00:38.024Z,9.34
2023-03-26T09:01:38.065Z,9.39
2023-03-26T09:02:38.109Z,9.35
2023-03-26T09:03:38.011Z,9.38
2023-03-26T09:04:37.955Z,9.35
2023-03-26T09:05:38.054Z,9.34
2023-03-26T09:06:37.962Z,9.32
2023-03-26T09:07:37.935Z,9.28
2023-03-26T09:08:37.909Z,9.38
2023-03-26T09:09:38.917Z,9.43
2023-03-26T09:10:37.894Z,9.35
2023-03-26T09:11:37.912Z,9.38
2023-03-26T09:12:37.869Z,9.28
2023-03-26T09:13:37.869Z,9.18
2023-03-26T09:14:37.836Z,9.16
2023-03-26T09:15:38.487Z,9.12
2023-03-26T09:16:37.872Z,9.12
2023-03-26T09:17:37.835Z,9.06
2023-03-26T09:18:37.776Z,9.04
2023-03-26T09:19:37.810Z,9.01
2023-03-26T09:20:37.768Z,8.91
2023-03-26T09:21:37.749Z,8.88
2023-03-26T09:22:37.727Z,8.84
2023-03-26T09:23:37.727Z,8.78
2023-03-26T09:24:37.755Z,8.73
2023-03-26T09:25:37.730Z,8.72
2023-03-26T09:26:37.687Z,8.72
2023-03-26T09:27:37.660Z,8.75
2023-03-26T09:28:37.663Z,8.79
2023-03-26T09:29:37.652Z,8.81
2023-03-26T09:30:37.644Z,8.83
2023-03-26T09:31:37.651Z,8.83
2023-03-26T09:32:37.654Z,8.81
2023-03-26T09:33:37.596Z,8.83
2023-03-26T09:34:37.582Z,8.81
2023-03-26T09:35:37.602Z,8.81
2023-03-26T09:36:37.543Z,8.84
2023-03-26T09:37:56.249Z,8.83
2023-03-26T09:38:38.520Z,8.86
2023-03-26T09:39:37.526Z,8.87
2023-03-26T09:40:37.583Z,8.91
2023-03-26T09:41:37.491Z,8.91
2023-03-26T09:42:37.481Z,8.90
2023-03-26T09:43:37.467Z,8.93
2023-03-26T09:44:37.439Z,8.96
2023-03-26T09:45:37.446Z,9.02
2023-03-26T09:46:37.599Z,9.04
2023-03-26T09:47:37.458Z,9.02
2023-03-26T09:48:37.379Z,9.01
2023-03-26T09:49:37.401Z,9.05
2023-03-26T09:50:37.376Z,9.05
2023-03-26T09:51:37.374Z,9.04
2023-03-26T09:52:37.331Z,9.01
2023-03-26T09:53:37.335Z,8.99
2023-03-26T09:54:37.302Z,8.88
2023-03-26T09:55:37.350Z,8.88
2023-03-26T09:56:38.476Z,8.78
2023-03-26T09:57:37.310Z,8.71
2023-03-26T09:58:37.250Z,8.71
2023-03-26T09:59:37.240Z,8.65
2023-03-26T10:00:37.222Z,8.60
2023-03-26T10:01:37.337Z,8.47
2023-03-26T10:02:46.502Z,8.26
2023-03-26T10:03:38.225Z,8.14
2023-03-26T10:04:37.229Z,7.97
2023-03-26T10:05:37.177Z,7.92
2023-03-26T10:06:37.171Z,7.89
2023-03-26T10:07:37.146Z,7.89
2023-03-26T10:08:37.147Z,7.82
2023-03-26T10:09:37.133Z,7.79
2023-03-26T10:10:37.117Z,7.79
2023-03-26T10:11:37.085Z,7.82
2023-03-26T10:12:37.086Z,7.81
2023-03-26T10:13:37.059Z,7.81
2023-03-26T10:14:37.054Z,7.75
2023-03-26T10:15:37.034Z,7.78
2023-03-26T10:16:37.060Z,7.78
2023-03-26T10:17:37.093Z,7.77
2023-03-26T10:18:36.999Z,7.71
2023-03-26T10:19:36.992Z,7.71
2023-03-26T10:20:36.975Z,7.62
2023-03-26T10:21:36.978Z,7.60
2023-03-26T10:22:36.947Z,7.69
2023-03-26T10:23:36.944Z,7.69
2023-03-26T10:24:36.934Z,7.77
2023-03-26T10:25:36.921Z,7.92
2023-03-26T10:26:36.897Z,7.97
2023-03-26T10:27:36.901Z,7.89
2023-03-26T10:28:36.881Z,7.82
2023-03-26T10:29:36.846Z,7.84
2023-03-26T10:30:36.955Z,7.90
2023-03-26T10:31:36.839Z,7.89
2023-03-26T10:32:36.818Z,7.99
2023-03-26T10:33:36.796Z,7.94
2023-03-26T10:34:36.800Z,7.96
2023-03-26T10:35:36.873Z,7.96
2023-03-26T10:36:36.778Z,8.03
2023-03-26T10:37:36.759Z,8.10
2023-03-26T10:38:36.730Z,8.11
2023-03-26T10:39:38.916Z,8.11
2023-03-26T10:40:36.730Z,8.15
2023-03-26T10:41:36.705Z,8.12
2023-03-26T10:42:36.683Z,8.15
2023-03-26T10:43:36.674Z,8.20
2023-03-26T10:44:36.684Z,8.21
2023-03-26T10:45:36.724Z,8.21
2023-03-26T10:46:36.643Z,8.20
2023-03-26T10:47:36.728Z,8.28
2023-03-26T10:48:36.606Z,8.37
2023-03-26T10:49:36.605Z,8.44
2023-03-26T10:50:36.588Z,8.50
2023-03-26T10:51:36.569Z,8.54
2023-03-26T10:52:36.589Z,8.37
2023-03-26T10:53:36.530Z,8.32
2023-03-26T10:54:36.540Z,8.29
2023-03-26T10:55:36.524Z,8.37
2023-03-26T10:56:36.537Z,8.42
2023-03-26T10:57:36.503Z,8.33
2023-03-26T10:58:48.484Z,8.30
2023-03-26T10:59:37.465Z,8.33
2023-03-26T11:00:36.452Z,8.37
2023-03-26T11:01:36.459Z,8.32
2023-03-26T11:02:36.452Z,8.39
2023-03-26T11:03:36.424Z,8.48
2023-03-26T11:04:36.397Z,8.47
2023-03-26T11:05:36.417Z,8.48
2023-03-26T11:06:36.430Z,8.50
2023-03-26T11:07:36.380Z,8.45
2023-03-26T11:08:36.353Z,8.45
2023-03-26T11:09:36.362Z,8.50
2023-03-26T11:10:36.333Z,8.51
2023-03-26T11:11:36.320Z,8.54
2023-03-26T11:12:36.299Z,8.68
2023-03-26T11:13:36.286Z,8.81
2023-03-26T11:14:36.280Z,8.81
2023-03-26T11:15:36.278Z,8.78
2023-03-26T11:16:36.247Z,8.79
2023-03-26T11:17:40.165Z,8.91
2023-03-26T11:18:37.219Z,9.02
2023-03-26T11:19:36.252Z,9.18
2023-03-26T11:20:36.200Z,9.20
2023-03-26T11:21:36.192Z,9.21
2023-03-26T11:22:36.156Z,9.18
2023-03-26T11:23:36.168Z,9.13
2023-03-26T11:24:36.142Z,9.15
2023-03-26T11:25:36.136Z,9.20
2023-03-26T11:26:37.644Z,9.32
2023-03-26T11:27:36.111Z,9.39
2023-03-26T11:28:36.116Z,9.45
2023-03-26T11:29:36.109Z,9.50
2023-03-26T11:30:36.097Z,9.53
2023-03-26T11:31:36.089Z,9.30
2023-03-26T11:32:36.047Z,9.25
2023-03-26T11:33:36.035Z,9.24
2023-03-26T11:34:36.023Z,9.28
2023-03-26T11:35:42.577Z,9.43
2023-03-26T11:36:36.976Z,9.48
2023-03-26T11:37:35.989Z,9.64
2023-03-26T11:38:35.951Z,9.67
2023-03-26T11:39:35.960Z,9.70
2023-03-26T11:40:35.955Z,9.81
2023-03-26T11:41:35.917Z,9.88
2023-03-26T11:42:35.918Z,9.89
2023-03-26T11:43:35.922Z,9.93
2023-03-26T11:44:35.872Z,10.01
2023-03-26T11:45:35.877Z,10.06
2023-03-26T11:46:35.936Z,10.09
2023-03-26T11:47:35.857Z,10.26
2023-03-26T11:48:35.843Z,10.21
2023-03-26T11:49:35.837Z,10.17
2023-03-26T11:50:35.857Z,10.01
2023-03-26T11:51:35.803Z,10.00
2023-03-26T11:52:35.801Z,10.07
2023-03-26T11:53:35.776Z,10.14
2023-03-26T11:54:35.756Z,10.14
2023-03-26T11:55:35.753Z,10.17
2023-03-26T11:56:35.770Z,10.18
2023-03-26T11:57:35.729Z,10.24
2023-03-26T11:58:35.688Z,10.33
2023-03-26T11:59:45.245Z,10.39
2023-03-26T12:00:36.663Z,10.58
2023-03-26T12:01:35.671Z,10.73
2023-03-26T12:02:35.970Z,11.02
2023-03-26T12:03:35.635Z,11.20
2023-03-26T12:04:35.651Z,11.34
2023-03-26T12:05:35.592Z,11.13
2023-03-26T12:06:35.589Z,10.92
2023-03-26T12:07:35.592Z,10.77
2023-03-26T12:08:35.554Z,10.89
2023-03-26T12:09:35.579Z,10.83
2023-03-26T12:10:35.531Z,10.80
2023-03-26T12:11:35.788Z,10.77
2023-03-26T12:12:35.504Z,10.81
2023-03-26T12:13:35.507Z,10.80
2023-03-26T12:14:35.471Z,10.74
2023-03-26T12:15:35.451Z,10.77
2023-03-26T12:16:35.461Z,10.74
2023-03-26T12:17:35.468Z,10.63
2023-03-26T12:18:35.419Z,10.62
2023-03-26T12:19:35.436Z,10.76
2023-03-26T12:20:35.418Z,10.84
2023-03-26T12:21:35.381Z,10.95
2023-03-26T12:22:35.387Z,11.01
2023-03-26T12:23:35.384Z,11.24
2023-03-26T12:24:35.333Z,11.28
2023-03-26T12:25:35.362Z,11.32
2023-03-26T12:26:35.336Z,11.53
2023-03-26T12:27:35.385Z,11.53
2023-03-26T12:28:35.292Z,11.53
2023-03-26T12:29:35.303Z,11.31
2023-03-26T12:30:35.305Z,11.31
2023-03-26T12:31:35.284Z,11.46
2023-03-26T12:32:45.857Z,11.61
2023-03-26T12:33:36.280Z,11.59
2023-03-26T12:34:35.393Z,11.64
2023-03-26T12:35:35.237Z,11.41
2023-03-26T12:36:35.182Z,11.49
2023-03-26T12:37:35.188Z,11.54
2023-03-26T12:38:35.159Z,11.71
2023-03-26T12:40:07.748Z,11.64
2023-03-26T12:40:36.140Z,11.44
2023-03-26T12:44:46.649Z,11.36
2023-03-26T12:44:49.798Z,11.09
2023-03-26T12:44:49.857Z,11.17
2023-03-26T12:44:53.671Z,11.21
2023-03-26T12:45:37.012Z,11.19
2023-03-26T12:47:55.273Z,11.16
2023-03-26T12:48:01.473Z,11.28
2023-03-26T12:48:36.086Z,11.52
2023-03-26T12:49:35.012Z,11.70
2023-03-26T12:50:35.875Z,11.78
2023-03-26T12:51:35.018Z,11.70
2023-03-26T12:52:34.961Z,11.53
2023-03-26T12:53:34.967Z,11.39
2023-03-26T12:54:34.994Z,11.35
2023-03-26T12:55:34.950Z,11.20
2023-03-26T12:56:34.953Z,11.14
2023-03-26T12:57:34.943Z,11.24
2023-03-26T12:58:34.888Z,11.28
2023-03-26T12:59:34.922Z,11.38
2023-03-26T13:00:34.876Z,11.41
2023-03-26T13:01:35.059Z,11.50
2023-03-26T13:02:34.950Z,11.64
2023-03-26T13:03:34.907Z,11.62
2023-03-26T13:04:34.827Z,11.72
2023-03-26T13:05:34.836Z,11.75
2023-03-26T13:06:59.615Z,11.82
2023-03-26T13:07:38.970Z,11.86
2023-03-26T13:08:34.785Z,11.93
2023-03-26T13:09:34.750Z,11.97
2023-03-26T13:10:34.774Z,11.93
2023-03-26T13:11:34.739Z,11.86
2023-03-26T13:12:34.714Z,11.87
2023-03-26T13:13:34.799Z,12.02
2023-03-26T13:14:34.693Z,12.13
2023-03-26T13:15:34.732Z,12.05